sensor_id;sensor_type;location;lat;lon;timestamp;temperature;humidity
54516;DHT22;40422;45.892;4.738;2023-04-03T03:01:45;8.20;99.90
54516;DHT22;40422;45.892;4.738;2023-04-03T03:04:11;8.20;99.90
54516;DHT22;40422;45.892;4.738;2023-04-03T03:06:37;8.20;99.90
54516;DHT22;40422;45.892;4.738;2023-04-03T03:09:03;8.30;99.90
54516;DHT22;40422;45.892;4.738;2023-04-03T03:11:29;8.30;99.90
54516;DHT22;40422;45.892;4.738;2023-04-03T03:13:54;8.30;99.90
54516;DHT22;40422;45.892;4.738;2023-04-03T03:16:20;8.40;99.90
54516;DHT22;40422;45.892;4.738;2023-04-03T03:18:46;8.40;99.90
54516;DHT22;40422;45.892;4.738;2023-04-03T03:21:11;8.40;99.90
54516;DHT22;40422;45.892;4.738;2023-04-03T03:23:37;8.50;99.90
54516;DHT22;40422;45.892;4.738;2023-04-03T03:26:05;8.50;99.90
54516;DHT22;40422;45.892;4.738;2023-04-03T03:28:31;8.50;99.90
54516;DHT22;40422;45.892;4.738;2023-04-03T03:30:57;8.60;99.90
54516;DHT22;40422;45.892;4.738;2023-04-03T03:33:23;8.60;99.90
54516;DHT22;40422;45.892;4.738;2023-04-03T03:35:49;8.60;99.90
54516;DHT22;40422;45.892;4.738;2023-04-03T03:38:15;8.60;99.90
54516;DHT22;40422;45.892;4.738;2023-04-03T03:40:40;8.60;99.90
54516;DHT22;40422;45.892;4.738;2023-04-03T03:43:06;8.60;99.90
54516;DHT22;40422;45.892;4.738;2023-04-03T03:45:32;8.60;99.90
54516;DHT22;40422;45.892;4.738;2023-04-03T03:47:57;8.60;99.90
54516;DHT22;40422;45.892;4.738;2023-04-03T03:50:23;8.60;99.90
54516;DHT22;40422;45.892;4.738;2023-04-03T03:52:49;8.70;99.90
54516;DHT22;40422;45.892;4.738;2023-04-03T03:55:15;8.60;99.90
54516;DHT22;40422;45.892;4.738;2023-04-03T03:57:40;8.70;99.90
54516;DHT22;40422;45.892;4.738;2023-04-03T04:00:06;8.70;99.90
54516;DHT22;40422;45.892;4.738;2023-04-03T04:02:32;8.70;99.90
54516;DHT22;40422;45.892;4.738;2023-04-03T04:04:58;8.70;99.90
54516;DHT22;40422;45.892;4.738;2023-04-03T04:07:24;8.70;99.90
54516;DHT22;40422;45.892;4.738;2023-04-03T04:09:49;8.80;99.90
54516;DHT22;40422;45.892;4.738;2023-04-03T04:12:15;8.80;99.90
54516;DHT22;40422;45.892;4.738;2023-04-03T04:14:41;8.80;99.90
54516;DHT22;40422;45.892;4.738;2023-04-03T04:17:07;8.80;99.90
54516;DHT22;40422;45.892;4.738;2023-04-03T04:19:32;8.80;99.90
54516;DHT22;40422;45.892;4.738;2023-04-03T04:21:58;8.80;99.90
54516;DHT22;40422;45.892;4.738;2023-04-03T04:24:24;8.90;99.90
54516;DHT22;40422;45.892;4.738;2023-04-03T04:26:50;8.80;99.90
54516;DHT22;40422;45.892;4.738;2023-04-03T04:29:18;8.80;99.90
54516;DHT22;40422;45.892;4.738;2023-04-03T04:31:43;8.80;99.90
54516;DHT22;40422;45.892;4.738;2023-04-03T04:34:09;8.80;99.90
54516;DHT22;40422;45.892;4.738;2023-04-03T04:36:35;8.80;99.90
54516;DHT22;40422;45.892;4.738;2023-04-03T04:39:01;8.90;99.90
54516;DHT22;40422;45.892;4.738;2023-04-03T04:41:26;8.90;99.90
54516;DHT22;40422;45.892;4.738;2023-04-03T04:43:52;8.90;99.90
54516;DHT22;40422;45.892;4.738;2023-04-03T04:46:18;8.90;99.90
54516;DHT22;40422;45.892;4.738;2023-04-03T04:48:44;8.90;99.90
54516;DHT22;40422;45.892;4.738;2023-04-03T04:51:10;8.80;99.90
54516;DHT22;40422;45.892;4.738;2023-04-03T04:53:36;8.80;99.90
54516;DHT22;40422;45.892;4.738;2023-04-03T04:56:02;8.80;99.90
54516;DHT22;40422;45.892;4.738;2023-04-03T04:58:28;8.70;99.90
54516;DHT22;40422;45.892;4.738;2023-04-03T05:01:04;8.80;99.90
54516;DHT22;40422;45.892;4.738;2023-04-03T05:03:30;8.80;99.90
54516;DHT22;40422;45.892;4.738;2023-04-03T05:05:55;8.80;99.90
54516;DHT22;40422;45.892;4.738;2023-04-03T05:08:21;8.80;99.90
54516;DHT22;40422;45.892;4.738;2023-04-03T05:10:47;8.80;99.90
54516;DHT22;40422;45.892;4.738;2023-04-03T05:13:13;8.80;99.90
54516;DHT22;40422;45.892;4.738;2023-04-03T05:15:39;8.80;99.90
54516;DHT22;40422;45.892;4.738;2023-04-03T05:18:05;8.70;99.90
54516;DHT22;40422;45.892;4.738;2023-04-03T05:20:31;8.70;99.90
54516;DHT22;40422;45.892;4.738;2023-04-03T05:22:57;8.70;99.90
54516;DHT22;40422;45.892;4.738;2023-04-03T05:25:23;8.80;99.90
54516;DHT22;40422;45.892;4.738;2023-04-03T05:27:49;8.80;99.90
54516;DHT22;40422;45.892;4.738;2023-04-03T05:30:15;8.70;99.90
54516;DHT22;40422;45.892;4.738;2023-04-03T05:32:41;8.70;99.90
54516;DHT22;40422;45.892;4.738;2023-04-03T05:35:08;8.70;99.90
54516;DHT22;40422;45.892;4.738;2023-04-03T05:37:34;8.70;99.90
54516;DHT22;40422;45.892;4.738;2023-04-03T05:40:00;8.70;99.90
54516;DHT22;40422;45.892;4.738;2023-04-03T05:42:26;8.80;99.90
54516;DHT22;40422;45.892;4.738;2023-04-03T05:44:52;8.70;99.90
54516;DHT22;40422;45.892;4.738;2023-04-03T05:47:18;8.70;99.90
54516;DHT22;40422;45.892;4.738;2023-04-03T05:49:44;8.70;99.90
54516;DHT22;40422;45.892;4.738;2023-04-03T05:52:27;8.70;99.90
54516;DHT22;40422;45.892;4.738;2023-04-03T05:54:53;8.70;99.90
54516;DHT22;40422;45.892;4.738;2023-04-03T05:57:18;8.60;99.90
54516;DHT22;40422;45.892;4.738;2023-04-03T05:59:45;8.60;99.90
54516;DHT22;40422;45.892;4.738;2023-04-03T06:02:18;8.60;99.90
54516;DHT22;40422;45.892;4.738;2023-04-03T06:04:45;8.60;99.90
54516;DHT22;40422;45.892;4.738;2023-04-03T06:07:17;8.60;99.90
54516;DHT22;40422;45.892;4.738;2023-04-03T06:09:44;8.60;99.90
54516;DHT22;40422;45.892;4.738;2023-04-03T06:12:11;8.50;99.90
54516;DHT22;40422;45.892;4.738;2023-04-03T06:14:36;8.50;99.90
54516;DHT22;40422;45.892;4.738;2023-04-03T06:17:03;8.60;99.90
54516;DHT22;40422;45.892;4.738;2023-04-03T06:19:29;8.60;99.90
54516;DHT22;40422;45.892;4.738;2023-04-03T06:21:55;8.60;99.90
54516;DHT22;40422;45.892;4.738;2023-04-03T06:24:21;8.60;99.90
54516;DHT22;40422;45.892;4.738;2023-04-03T06:26:49;8.60;99.90
54516;DHT22;40422;45.892;4.738;2023-04-03T06:29:17;8.60;99.90
54516;DHT22;40422;45.892;4.738;2023-04-03T06:31:43;8.60;99.90
54516;DHT22;40422;45.892;4.738;2023-04-03T06:34:09;8.50;99.90
54516;DHT22;40422;45.892;4.738;2023-04-03T06:36:36;8.50;99.90
54516;DHT22;40422;45.892;4.738;2023-04-03T06:39:02;8.50;99.90
54516;DHT22;40422;45.892;4.738;2023-04-03T06:41:29;8.50;99.90
54516;DHT22;40422;45.892;4.738;2023-04-03T06:43:55;8.50;99.90
54516;DHT22;40422;45.892;4.738;2023-04-03T06:46:23;8.50;99.90
54516;DHT22;40422;45.892;4.738;2023-04-03T06:48:49;8.60;99.90
54516;DHT22;40422;45.892;4.738;2023-04-03T06:51:20;8.50;99.90
54516;DHT22;40422;45.892;4.738;2023-04-03T06:53:50;8.50;99.90
54516;DHT22;40422;45.892;4.738;2023-04-03T06:56:16;8.50;99.90
54516;DHT22;40422;45.892;4.738;2023-04-03T06:58:43;8.50;99.90
54516;DHT22;40422;45.892;4.738;2023-04-03T07:01:12;8.50;99.90
54516;DHT22;40422;45.892;4.738;2023-04-03T07:03:38;8.60;99.90
54516;DHT22;40422;45.892;4.738;2023-04-03T07:06:05;8.60;99.90
54516;DHT22;40422;45.892;4.738;2023-04-03T07:08:33;8.60;99.90
54516;DHT22;40422;45.892;4.738;2023-04-03T07:10:58;8.50;99.90
54516;DHT22;40422;45.892;4.738;2023-04-03T07:13:25;8.50;99.90
54516;DHT22;40422;45.892;4.738;2023-04-03T07:15:51;8.40;99.90
54516;DHT22;40422;45.892;4.738;2023-04-03T07:18:18;8.50;99.90
54516;DHT22;40422;45.892;4.738;2023-04-03T07:20:44;8.50;99.90
54516;DHT22;40422;45.892;4.738;2023-04-03T07:23:10;8.50;99.90
54516;DHT22;40422;45.892;4.738;2023-04-03T07:25:36;8.50;99.90
54516;DHT22;40422;45.892;4.738;2023-04-03T07:28:03;8.50;99.90
54516;DHT22;40422;45.892;4.738;2023-04-03T07:30:29;8.40;99.90
54516;DHT22;40422;45.892;4.738;2023-04-03T07:32:54;8.50;99.90
54516;DHT22;40422;45.892;4.738;2023-04-03T07:35:21;8.50;99.90
54516;DHT22;40422;45.892;4.738;2023-04-03T07:37:47;8.60;99.90
54516;DHT22;40422;45.892;4.738;2023-04-03T07:40:12;8.70;99.90
54516;DHT22;40422;45.892;4.738;2023-04-03T07:42:38;8.70;99.90
54516;DHT22;40422;45.892;4.738;2023-04-03T07:45:04;8.80;99.90
54516;DHT22;40422;45.892;4.738;2023-04-03T07:47:30;8.80;99.90
54516;DHT22;40422;45.892;4.738;2023-04-03T07:49:56;8.80;99.90
54516;DHT22;40422;45.892;4.738;2023-04-03T07:52:23;8.80;99.90
54516;DHT22;40422;45.892;4.738;2023-04-03T07:54:48;8.70;99.90
54516;DHT22;40422;45.892;4.738;2023-04-03T07:57:14;8.60;99.90
54516;DHT22;40422;45.892;4.738;2023-04-03T07:59:40;8.60;99.90
54516;DHT22;40422;45.892;4.738;2023-04-03T08:02:09;8.50;99.90
54516;DHT22;40422;45.892;4.738;2023-04-03T08:04:35;8.40;99.90
54516;DHT22;40422;45.892;4.738;2023-04-03T08:07:01;8.40;99.90
54516;DHT22;40422;45.892;4.738;2023-04-03T08:09:26;8.40;99.90
54516;DHT22;40422;45.892;4.738;2023-04-03T08:11:52;8.50;99.90
54516;DHT22;40422;45.892;4.738;2023-04-03T08:14:19;8.60;99.90
54516;DHT22;40422;45.892;4.738;2023-04-03T08:16:46;8.60;99.90
54516;DHT22;40422;45.892;4.738;2023-04-03T08:19:15;8.70;99.90
54516;DHT22;40422;45.892;4.738;2023-04-03T08:21:43;8.70;99.90
54516;DHT22;40422;45.892;4.738;2023-04-03T08:24:10;8.60;99.90
54516;DHT22;40422;45.892;4.738;2023-04-03T08:26:35;8.70;99.90
54516;DHT22;40422;45.892;4.738;2023-04-03T08:29:01;8.70;99.90
54516;DHT22;40422;45.892;4.738;2023-04-03T08:31:27;8.70;99.90
54516;DHT22;40422;45.892;4.738;2023-04-03T08:33:54;8.80;99.90
54516;DHT22;40422;45.892;4.738;2023-04-03T08:36:22;8.80;99.90
54516;DHT22;40422;45.892;4.738;2023-04-03T08:38:49;8.80;99.90
54516;DHT22;40422;45.892;4.738;2023-04-03T08:41:20;8.60;99.90
54516;DHT22;40422;45.892;4.738;2023-04-03T08:44:24;8.60;99.90
54516;DHT22;40422;45.892;4.738;2023-04-03T08:49:32;8.60;99.90
54516;DHT22;40422;45.892;4.738;2023-04-03T08:52:03;8.60;99.90
54516;DHT22;40422;45.892;4.738;2023-04-03T08:54:34;8.60;99.90
54516;DHT22;40422;45.892;4.738;2023-04-03T08:57:03;8.70;99.90
54516;DHT22;40422;45.892;4.738;2023-04-03T08:59:34;8.70;99.90
54516;DHT22;40422;45.892;4.738;2023-04-03T09:02:03;8.80;99.90
54516;DHT22;40422;45.892;4.738;2023-04-03T09:04:32;8.80;99.90
54516;DHT22;40422;45.892;4.738;2023-04-03T09:07:07;8.70;99.90
54516;DHT22;40422;45.892;4.738;2023-04-03T09:09:37;8.70;99.90
54516;DHT22;40422;45.892;4.738;2023-04-03T09:12:15;8.70;99.90
54516;DHT22;40422;45.892;4.738;2023-04-03T09:20:44;8.70;99.90
54516;DHT22;40422;45.892;4.738;2023-04-03T09:25:50;8.80;99.90
54516;DHT22;40422;45.892;4.738;2023-04-03T09:28:16;8.90;99.90
54516;DHT22;40422;45.892;4.738;2023-04-03T09:30:42;9.00;99.90
54516;DHT22;40422;45.892;4.738;2023-04-03T09:33:08;9.10;99.90
54516;DHT22;40422;45.892;4.738;2023-04-03T09:35:37;9.20;99.90
54516;DHT22;40422;45.892;4.738;2023-04-03T09:45:44;9.10;99.90
54516;DHT22;40422;45.892;4.738;2023-04-03T09:48:16;9.10;99.90
54516;DHT22;40422;45.892;4.738;2023-04-03T09:50:58;9.10;99.90
54516;DHT22;40422;45.892;4.738;2023-04-03T09:53:44;9.20;99.90
54516;DHT22;40422;45.892;4.738;2023-04-03T09:58:46;9.20;99.90
54516;DHT22;40422;45.892;4.738;2023-04-03T10:01:34;9.40;99.90
54516;DHT22;40422;45.892;4.738;2023-04-03T10:04:18;9.60;99.90
54516;DHT22;40422;45.892;4.738;2023-04-03T10:06:50;9.80;99.90
54516;DHT22;40422;45.892;4.738;2023-04-03T10:09:24;10.00;99.90
54516;DHT22;40422;45.892;4.738;2023-04-03T10:12:10;10.10;99.90
54516;DHT22;40422;45.892;4.738;2023-04-03T10:14:54;10.00;99.90
54516;DHT22;40422;45.892;4.738;2023-04-03T10:17:53;9.90;99.90
54516;DHT22;40422;45.892;4.738;2023-04-03T10:23:02;9.80;99.90
54516;DHT22;40422;45.892;4.738;2023-04-03T10:25:40;9.90;99.90
54516;DHT22;40422;45.892;4.738;2023-04-03T10:35:58;10.40;99.90
54516;DHT22;40422;45.892;4.738;2023-04-03T10:38:43;10.30;99.90
54516;DHT22;40422;45.892;4.738;2023-04-03T10:44:08;10.20;99.90
54516;DHT22;40422;45.892;4.738;2023-04-03T10:46:49;10.10;99.90
54516;DHT22;40422;45.892;4.738;2023-04-03T10:49:30;10.10;99.90
54516;DHT22;40422;45.892;4.738;2023-04-03T10:55:02;10.50;99.90
54516;DHT22;40422;45.892;4.738;2023-04-03T10:57:32;10.80;99.90
54516;DHT22;40422;45.892;4.738;2023-04-03T11:00:06;10.90;99.90
54516;DHT22;40422;45.892;4.738;2023-04-03T11:02:45;10.90;99.90
54516;DHT22;40422;45.892;4.738;2023-04-03T11:05:26;11.00;99.90
54516;DHT22;40422;45.892;4.738;2023-04-03T11:07:55;11.00;99.90
54516;DHT22;40422;45.892;4.738;2023-04-03T11:10:40;11.10;99.90
54516;DHT22;40422;45.892;4.738;2023-04-03T11:13:12;11.10;99.90
54516;DHT22;40422;45.892;4.738;2023-04-03T11:15:38;11.20;99.90
54516;DHT22;40422;45.892;4.738;2023-04-03T11:18:10;11.50;99.90
54516;DHT22;40422;45.892;4.738;2023-04-03T11:20:39;11.90;99.90
54516;DHT22;40422;45.892;4.738;2023-04-03T11:23:18;12.10;99.90
54516;DHT22;40422;45.892;4.738;2023-04-03T11:25:49;12.30;99.90
54516;DHT22;40422;45.892;4.738;2023-04-03T11:28:15;12.50;99.90
54516;DHT22;40422;45.892;4.738;2023-04-03T11:30:53;12.60;99.90
54516;DHT22;40422;45.892;4.738;2023-04-03T11:33:32;12.70;99.90
54516;DHT22;40422;45.892;4.738;2023-04-03T11:36:08;12.30;99.90
54516;DHT22;40422;45.892;4.738;2023-04-03T11:38:42;12.50;99.90
54516;DHT22;40422;45.892;4.738;2023-04-03T11:41:09;12.30;99.90
54516;DHT22;40422;45.892;4.738;2023-04-03T11:43:41;12.60;99.90
54516;DHT22;40422;45.892;4.738;2023-04-03T11:46:09;13.00;99.90
54516;DHT22;40422;45.892;4.738;2023-04-03T11:53:40;12.80;99.90
54516;DHT22;40422;45.892;4.738;2023-04-03T12:01:48;13.20;99.90
54516;DHT22;40422;45.892;4.738;2023-04-03T12:04:16;13.40;99.90
54516;DHT22;40422;45.892;4.738;2023-04-03T12:06:49;13.60;99.90
54516;DHT22;40422;45.892;4.738;2023-04-03T12:14:54;13.80;99.90
54516;DHT22;40422;45.892;4.738;2023-04-03T12:17:23;14.00;99.90
54516;DHT22;40422;45.892;4.738;2023-04-03T12:19:51;14.30;99.90
54516;DHT22;40422;45.892;4.738;2023-04-03T12:22:18;14.70;99.90
54516;DHT22;40422;45.892;4.738;2023-04-03T12:24:48;14.70;99.90
54516;DHT22;40422;45.892;4.738;2023-04-03T12:29:56;13.90;99.90
54516;DHT22;40422;45.892;4.738;2023-04-03T12:35:43;13.30;99.90
54516;DHT22;40422;45.892;4.738;2023-04-03T12:41:14;13.30;99.90
54516;DHT22;40422;45.892;4.738;2023-04-03T12:46:18;13.90;99.90
54516;DHT22;40422;45.892;4.738;2023-04-03T12:48:55;14.00;99.90
54516;DHT22;40422;45.892;4.738;2023-04-03T12:54:04;14.10;99.90
54516;DHT22;40422;45.892;4.738;2023-04-03T12:56:38;14.00;99.90
54516;DHT22;40422;45.892;4.738;2023-04-03T12:59:22;14.10;99.90
54516;DHT22;40422;45.892;4.738;2023-04-03T13:04:20;14.20;99.90
54516;DHT22;40422;45.892;4.738;2023-04-03T13:06:46;14.10;99.90
54516;DHT22;40422;45.892;4.738;2023-04-03T13:11:44;13.70;99.90
54516;DHT22;40422;45.892;4.738;2023-04-03T13:16:52;13.50;99.90
54516;DHT22;40422;45.892;4.738;2023-04-03T13:19:18;13.90;99.90
54516;DHT22;40422;45.892;4.738;2023-04-03T13:21:44;14.20;99.90
54516;DHT22;40422;45.892;4.738;2023-04-03T13:24:14;13.90;99.90
54516;DHT22;40422;45.892;4.738;2023-04-03T13:26:39;13.60;99.90
54516;DHT22;40422;45.892;4.738;2023-04-03T13:29:14;13.70;99.90
54516;DHT22;40422;45.892;4.738;2023-04-03T13:31:43;13.90;99.90
54516;DHT22;40422;45.892;4.738;2023-04-03T13:34:19;14.30;99.90
54516;DHT22;40422;45.892;4.738;2023-04-03T13:41:49;13.70;99.90
54516;DHT22;40422;45.892;4.738;2023-04-03T13:44:28;13.40;99.90
54516;DHT22;40422;45.892;4.738;2023-04-03T13:47:22;13.10;99.90
54516;DHT22;40422;45.892;4.738;2023-04-03T13:50:19;13.10;99.90
54516;DHT22;40422;45.892;4.738;2023-04-03T13:55:29;13.40;99.90
54516;DHT22;40422;45.892;4.738;2023-04-03T13:58:21;13.40;99.90
54516;DHT22;40422;45.892;4.738;2023-04-03T14:00:50;13.40;99.90
54516;DHT22;40422;45.892;4.738;2023-04-03T14:03:30;13.20;99.90
54516;DHT22;40422;45.892;4.738;2023-04-03T14:05:56;13.10;99.90
54516;DHT22;40422;45.892;4.738;2023-04-03T14:08:22;13.00;99.90
54516;DHT22;40422;45.892;4.738;2023-04-03T14:10:48;12.70;99.90
54516;DHT22;40422;45.892;4.738;2023-04-03T14:13:17;12.80;99.90
54516;DHT22;40422;45.892;4.738;2023-04-03T14:15:43;12.80;99.90
54516;DHT22;40422;45.892;4.738;2023-04-03T14:18:13;12.70;99.90
54516;DHT22;40422;45.892;4.738;2023-04-03T14:20:39;12.70;99.90
54516;DHT22;40422;45.892;4.738;2023-04-03T14:23:05;12.40;99.90
54516;DHT22;40422;45.892;4.738;2023-04-03T14:25:32;12.30;99.90
54516;DHT22;40422;45.892;4.738;2023-04-03T14:27:58;12.20;99.90
54516;DHT22;40422;45.892;4.738;2023-04-03T14:30:31;12.20;99.90
54516;DHT22;40422;45.892;4.738;2023-04-03T14:32:57;12.30;99.90
54516;DHT22;40422;45.892;4.738;2023-04-03T14:35:24;12.30;99.90
54516;DHT22;40422;45.892;4.738;2023-04-03T14:37:51;12.20;99.90
54516;DHT22;40422;45.892;4.738;2023-04-03T14:40:23;12.30;99.90
54516;DHT22;40422;45.892;4.738;2023-04-03T14:42:49;12.20;99.90
54516;DHT22;40422;45.892;4.738;2023-04-03T14:45:16;12.10;99.90
54516;DHT22;40422;45.892;4.738;2023-04-03T14:47:50;12.10;99.90
54516;DHT22;40422;45.892;4.738;2023-04-03T14:50:23;12.10;99.90
54516;DHT22;40422;45.892;4.738;2023-04-03T14:52:52;11.80;99.90
54516;DHT22;40422;45.892;4.738;2023-04-03T14:55:21;11.70;99.90
54516;DHT22;40422;45.892;4.738;2023-04-03T14:57:47;11.80;99.90
54516;DHT22;40422;45.892;4.738;2023-04-03T15:00:16;11.70;99.90
54516;DHT22;40422;45.892;4.738;2023-04-03T15:02:42;11.60;99.90
54516;DHT22;40422;45.892;4.738;2023-04-03T15:05:09;11.60;99.90
54516;DHT22;40422;45.892;4.738;2023-04-03T15:07:38;11.60;99.90
54516;DHT22;40422;45.892;4.738;2023-04-03T15:10:19;11.60;99.90
54516;DHT22;40422;45.892;4.738;2023-04-03T15:12:47;11.50;99.90
54516;DHT22;40422;45.892;4.738;2023-04-03T15:15:14;11.30;99.90
54516;DHT22;40422;45.892;4.738;2023-04-03T15:17:40;11.20;99.90
54516;DHT22;40422;45.892;4.738;2023-04-03T15:20:15;11.10;99.90
54516;DHT22;40422;45.892;4.738;2023-04-03T15:22:41;11.00;99.90
54516;DHT22;40422;45.892;4.738;2023-04-03T15:25:08;10.90;99.90
54516;DHT22;40422;45.892;4.738;2023-04-03T15:27:34;11.00;99.90
54516;DHT22;40422;45.892;4.738;2023-04-03T15:30:00;11.00;99.90
54516;DHT22;40422;45.892;4.738;2023-04-03T15:32:26;11.00;99.90
54516;DHT22;40422;45.892;4.738;2023-04-03T15:34:51;10.90;99.90
54516;DHT22;40422;45.892;4.738;2023-04-03T15:37:18;11.00;99.90
54516;DHT22;40422;45.892;4.738;2023-04-03T15:39:44;11.00;99.90
54516;DHT22;40422;45.892;4.738;2023-04-03T15:42:09;11.00;99.90
54516;DHT22;40422;45.892;4.738;2023-04-03T15:44:37;10.90;99.90
54516;DHT22;40422;45.892;4.738;2023-04-03T15:47:03;10.80;99.90
54516;DHT22;40422;45.892;4.738;2023-04-03T15:49:29;10.80;99.90
54516;DHT22;40422;45.892;4.738;2023-04-03T15:51:55;10.80;99.90
54516;DHT22;40422;45.892;4.738;2023-04-03T15:54:21;10.80;99.90
54516;DHT22;40422;45.892;4.738;2023-04-03T15:56:46;10.70;99.90
54516;DHT22;40422;45.892;4.738;2023-04-03T15:59:12;10.70;99.90
54516;DHT22;40422;45.892;4.738;2023-04-03T16:01:38;10.70;99.90
54516;DHT22;40422;45.892;4.738;2023-04-03T16:04:05;10.70;99.90
54516;DHT22;40422;45.892;4.738;2023-04-03T16:06:32;10.80;99.90
54516;DHT22;40422;45.892;4.738;2023-04-03T16:08:59;10.70;99.90
54516;DHT22;40422;45.892;4.738;2023-04-03T16:11:26;10.80;99.90
54516;DHT22;40422;45.892;4.738;2023-04-03T16:13:51;10.80;99.90
54516;DHT22;40422;45.892;4.738;2023-04-03T16:16:17;10.70;99.90
54516;DHT22;40422;45.892;4.738;2023-04-03T16:18:43;10.70;99.90
54516;DHT22;40422;45.892;4.738;2023-04-03T16:21:09;10.60;99.90
54516;DHT22;40422;45.892;4.738;2023-04-03T16:23:35;10.60;99.90
54516;DHT22;40422;45.892;4.738;2023-04-03T16:26:01;10.50;99.90
54516;DHT22;40422;45.892;4.738;2023-04-03T16:28:26;10.60;99.90
54516;DHT22;40422;45.892;4.738;2023-04-03T16:30:52;10.60;99.90
54516;DHT22;40422;45.892;4.738;2023-04-03T16:33:18;10.60;99.90
54516;DHT22;40422;45.892;4.738;2023-04-03T16:35:47;10.70;99.90
54516;DHT22;40422;45.892;4.738;2023-04-03T16:38:13;10.60;99.90
54516;DHT22;40422;45.892;4.738;2023-04-03T16:40:40;10.60;99.90
54516;DHT22;40422;45.892;4.738;2023-04-03T16:43:06;10.40;99.90
54516;DHT22;40422;45.892;4.738;2023-04-03T16:45:31;10.30;99.90
54516;DHT22;40422;45.892;4.738;2023-04-03T16:47:57;10.20;99.90
54516;DHT22;40422;45.892;4.738;2023-04-03T16:50:22;10.10;99.90
54516;DHT22;40422;45.892;4.738;2023-04-03T16:52:48;10.10;99.90
54516;DHT22;40422;45.892;4.738;2023-04-03T16:55:14;10.30;99.90
54516;DHT22;40422;45.892;4.738;2023-04-03T16:57:39;10.40;99.90
54516;DHT22;40422;45.892;4.738;2023-04-03T17:00:06;10.40;99.90
54516;DHT22;40422;45.892;4.738;2023-04-03T17:02:32;10.30;99.90
54516;DHT22;40422;45.892;4.738;2023-04-03T17:04:58;10.10;99.90
54516;DHT22;40422;45.892;4.738;2023-04-03T17:07:25;10.10;99.90
54516;DHT22;40422;45.892;4.738;2023-04-03T17:09:51;10.00;99.90
54516;DHT22;40422;45.892;4.738;2023-04-03T17:12:19;10.00;99.90
54516;DHT22;40422;45.892;4.738;2023-04-03T17:14:45;9.90;99.90
54516;DHT22;40422;45.892;4.738;2023-04-03T17:17:12;9.90;99.90
54516;DHT22;40422;45.892;4.738;2023-04-03T17:19:39;10.00;99.90
54516;DHT22;40422;45.892;4.738;2023-04-03T17:22:07;9.90;99.90
54516;DHT22;40422;45.892;4.738;2023-04-03T17:24:33;9.80;99.90
54516;DHT22;40422;45.892;4.738;2023-04-03T17:26:58;9.80;99.90
54516;DHT22;40422;45.892;4.738;2023-04-03T17:29:24;9.80;99.90
54516;DHT22;40422;45.892;4.738;2023-04-03T17:31:50;9.70;99.90
54516;DHT22;40422;45.892;4.738;2023-04-03T17:34:15;9.70;99.90
54516;DHT22;40422;45.892;4.738;2023-04-03T17:36:41;9.60;99.90
54516;DHT22;40422;45.892;4.738;2023-04-03T17:39:07;9.70;99.90
54516;DHT22;40422;45.892;4.738;2023-04-03T17:41:33;9.60;99.90
54516;DHT22;40422;45.892;4.738;2023-04-03T17:43:58;9.50;99.90
54516;DHT22;40422;45.892;4.738;2023-04-03T17:46:25;9.50;99.90
54516;DHT22;40422;45.892;4.738;2023-04-03T17:48:51;9.50;99.90
54516;DHT22;40422;45.892;4.738;2023-04-03T17:51:20;9.50;99.90
54516;DHT22;40422;45.892;4.738;2023-04-03T17:53:46;9.50;99.90
54516;DHT22;40422;45.892;4.738;2023-04-03T17:56:15;9.40;99.90
54516;DHT22;40422;45.892;4.738;2023-04-03T17:58:41;9.30;99.90
54516;DHT22;40422;45.892;4.738;2023-04-03T18:01:16;9.20;99.90
54516;DHT22;40422;45.892;4.738;2023-04-03T18:03:43;9.10;99.90
54516;DHT22;40422;45.892;4.738;2023-04-03T18:06:13;9.10;99.90
54516;DHT22;40422;45.892;4.738;2023-04-03T18:08:42;9.10;99.90
54516;DHT22;40422;45.892;4.738;2023-04-03T18:11:09;9.00;99.90
54516;DHT22;40422;45.892;4.738;2023-04-03T18:13:35;9.00;99.90
54516;DHT22;40422;45.892;4.738;2023-04-03T18:16:03;9.00;99.90
54516;DHT22;40422;45.892;4.738;2023-04-03T18:18:29;8.90;99.90
54516;DHT22;40422;45.892;4.738;2023-04-03T18:20:55;8.80;99.90
54516;DHT22;40422;45.892;4.738;2023-04-03T18:23:20;8.80;99.90
54516;DHT22;40422;45.892;4.738;2023-04-03T18:25:46;8.80;99.90
54516;DHT22;40422;45.892;4.738;2023-04-03T18:28:12;8.80;99.90
54516;DHT22;40422;45.892;4.738;2023-04-03T18:30:38;8.70;99.90
54516;DHT22;40422;45.892;4.738;2023-04-03T18:33:03;8.70;99.90
54516;DHT22;40422;45.892;4.738;2023-04-03T18:35:29;8.70;99.90
54516;DHT22;40422;45.892;4.738;2023-04-03T18:37:55;8.70;99.90
54516;DHT22;40422;45.892;4.738;2023-04-03T18:40:21;8.70;99.90
54516;DHT22;40422;45.892;4.738;2023-04-03T18:42:46;8.70;99.90
54516;DHT22;40422;45.892;4.738;2023-04-03T18:45:15;8.60;99.90
54516;DHT22;40422;45.892;4.738;2023-04-03T18:47:41;8.60;99.90
54516;DHT22;40422;45.892;4.738;2023-04-03T18:50:08;8.60;99.90
54516;DHT22;40422;45.892;4.738;2023-04-03T18:52:34;8.50;99.90
54516;DHT22;40422;45.892;4.738;2023-04-03T18:54:59;8.50;99.90
54516;DHT22;40422;45.892;4.738;2023-04-03T18:57:25;8.50;99.90
54516;DHT22;40422;45.892;4.738;2023-04-03T18:59:51;8.40;99.90
54516;DHT22;40422;45.892;4.738;2023-04-03T19:02:17;8.40;99.90
54516;DHT22;40422;45.892;4.738;2023-04-03T19:04:45;8.50;99.90
54516;DHT22;40422;45.892;4.738;2023-04-03T19:07:11;8.40;99.90
54516;DHT22;40422;45.892;4.738;2023-04-03T19:09:37;8.40;99.90
54516;DHT22;40422;45.892;4.738;2023-04-03T19:12:04;8.30;99.90
54516;DHT22;40422;45.892;4.738;2023-04-03T19:14:30;8.30;99.90
54516;DHT22;40422;45.892;4.738;2023-04-03T19:16:56;8.30;99.90
54516;DHT22;40422;45.892;4.738;2023-04-03T19:19:22;8.30;99.90
54516;DHT22;40422;45.892;4.738;2023-04-03T19:21:47;8.30;99.90
54516;DHT22;40422;45.892;4.738;2023-04-03T19:24:13;8.20;99.90
54516;DHT22;40422;45.892;4.738;2023-04-03T19:26:40;8.20;99.90
54516;DHT22;40422;45.892;4.738;2023-04-03T19:29:05;8.10;99.90
54516;DHT22;40422;45.892;4.738;2023-04-03T19:31:31;8.00;99.90
54516;DHT22;40422;45.892;4.738;2023-04-03T19:33:58;8.00;99.90
54516;DHT22;40422;45.892;4.738;2023-04-03T19:36:24;8.00;99.90
54516;DHT22;40422;45.892;4.738;2023-04-03T19:38:50;7.90;99.90
54516;DHT22;40422;45.892;4.738;2023-04-03T19:41:21;7.90;99.90
54516;DHT22;40422;45.892;4.738;2023-04-03T19:43:50;7.90;99.90
54516;DHT22;40422;45.892;4.738;2023-04-03T19:46:16;7.90;99.90
54516;DHT22;40422;45.892;4.738;2023-04-03T19:48:43;7.90;99.90
54516;DHT22;40422;45.892;4.738;2023-04-03T19:51:10;7.80;99.90
54516;DHT22;40422;45.892;4.738;2023-04-03T19:53:35;7.80;99.90
54516;DHT22;40422;45.892;4.738;2023-04-03T19:56:01;7.70;99.90
54516;DHT22;40422;45.892;4.738;2023-04-03T19:58:27;7.70;99.90
